sensor_id;sensor_type;location;lat;lon;timestamp;P1;durP1;ratioP1;P2;durP2;ratioP2
20855;SDS011;63058;49.424;8.420;2023-05-07T00:01:36;4.10;;;1.35;;
20855;SDS011;63058;49.424;8.420;2023-05-07T00:04:02;3.85;;;1.73;;
20855;SDS011;63058;49.424;8.420;2023-05-07T00:06:28;2.25;;;1.40;;
20855;SDS011;63058;49.424;8.420;2023-05-07T00:08:55;1.40;;;1.20;;
20855;SDS011;63058;49.424;8.420;2023-05-07T00:11:21;1.40;;;1.30;;
20855;SDS011;63058;49.424;8.420;2023-05-07T00:13:47;2.28;;;1.10;;
20855;SDS011;63058;49.424;8.420;2023-05-07T00:16:13;2.70;;;1.40;;
20855;SDS011;63058;49.424;8.420;2023-05-07T00:18:39;3.65;;;1.58;;
20855;SDS011;63058;49.424;8.420;2023-05-07T00:21:05;3.22;;;1.70;;
20855;SDS011;63058;49.424;8.420;2023-05-07T00:23:31;2.20;;;1.60;;
20855;SDS011;63058;49.424;8.420;2023-05-07T00:25:56;2.03;;;1.70;;
20855;SDS011;63058;49.424;8.420;2023-05-07T00:28:22;1.98;;;1.45;;
20855;SDS011;63058;49.424;8.420;2023-05-07T00:30:48;2.42;;;1.40;;
20855;SDS011;63058;49.424;8.420;2023-05-07T00:33:13;5.55;;;1.52;;
20855;SDS011;63058;49.424;8.420;2023-05-07T00:35:41;3.28;;;1.50;;
20855;SDS011;63058;49.424;8.420;2023-05-07T00:38:07;2.20;;;1.40;;
20855;SDS011;63058;49.424;8.420;2023-05-07T00:40:33;2.13;;;1.40;;
20855;SDS011;63058;49.424;8.420;2023-05-07T00:43:00;5.68;;;1.50;;
20855;SDS011;63058;49.424;8.420;2023-05-07T00:45:28;3.22;;;1.83;;
20855;SDS011;63058;49.424;8.420;2023-05-07T00:47:58;1.60;;;1.42;;
20855;SDS011;63058;49.424;8.420;2023-05-07T00:50:25;1.75;;;1.20;;
20855;SDS011;63058;49.424;8.420;2023-05-07T00:52:52;2.38;;;1.10;;
20855;SDS011;63058;49.424;8.420;2023-05-07T00:55:18;2.28;;;1.50;;
20855;SDS011;63058;49.424;8.420;2023-05-07T00:57:45;1.80;;;1.30;;
20855;SDS011;63058;49.424;8.420;2023-05-07T01:00:11;1.88;;;1.55;;
20855;SDS011;63058;49.424;8.420;2023-05-07T01:02:40;1.90;;;1.33;;
20855;SDS011;63058;49.424;8.420;2023-05-07T01:05:07;1.70;;;1.33;;
20855;SDS011;63058;49.424;8.420;2023-05-07T01:07:36;3.15;;;1.40;;
20855;SDS011;63058;49.424;8.420;2023-05-07T01:10:04;2.10;;;1.60;;
20855;SDS011;63058;49.424;8.420;2023-05-07T01:12:31;2.80;;;1.60;;
20855;SDS011;63058;49.424;8.420;2023-05-07T01:14:57;2.10;;;1.52;;
20855;SDS011;63058;49.424;8.420;2023-05-07T01:17:23;2.03;;;1.30;;
20855;SDS011;63058;49.424;8.420;2023-05-07T01:19:49;2.00;;;1.70;;
20855;SDS011;63058;49.424;8.420;2023-05-07T01:22:16;1.88;;;1.40;;
20855;SDS011;63058;49.424;8.420;2023-05-07T01:24:45;5.72;;;2.60;;
20855;SDS011;63058;49.424;8.420;2023-05-07T01:27:11;1.83;;;1.42;;
20855;SDS011;63058;49.424;8.420;2023-05-07T01:29:37;2.80;;;1.95;;
20855;SDS011;63058;49.424;8.420;2023-05-07T01:32:02;1.70;;;1.35;;
20855;SDS011;63058;49.424;8.420;2023-05-07T01:34:31;2.90;;;1.90;;
20855;SDS011;63058;49.424;8.420;2023-05-07T01:36:59;2.33;;;1.70;;
20855;SDS011;63058;49.424;8.420;2023-05-07T01:39:26;2.42;;;1.98;;
20855;SDS011;63058;49.424;8.420;2023-05-07T01:41:56;2.33;;;1.80;;
20855;SDS011;63058;49.424;8.420;2023-05-07T01:44:24;3.88;;;1.75;;
20855;SDS011;63058;49.424;8.420;2023-05-07T01:46:51;2.53;;;1.90;;
20855;SDS011;63058;49.424;8.420;2023-05-07T01:49:18;4.40;;;1.85;;
20855;SDS011;63058;49.424;8.420;2023-05-07T01:51:44;4.07;;;1.90;;
20855;SDS011;63058;49.424;8.420;2023-05-07T01:54:10;3.45;;;1.85;;
20855;SDS011;63058;49.424;8.420;2023-05-07T01:56:36;2.72;;;2.10;;
20855;SDS011;63058;49.424;8.420;2023-05-07T01:59:01;3.58;;;2.13;;
20855;SDS011;63058;49.424;8.420;2023-05-07T02:01:27;3.60;;;2.00;;
20855;SDS011;63058;49.424;8.420;2023-05-07T02:03:53;2.70;;;1.83;;
20855;SDS011;63058;49.424;8.420;2023-05-07T02:06:19;1.98;;;1.67;;
20855;SDS011;63058;49.424;8.420;2023-05-07T02:08:45;5.07;;;2.03;;
20855;SDS011;63058;49.424;8.420;2023-05-07T02:11:12;3.33;;;2.28;;
20855;SDS011;63058;49.424;8.420;2023-05-07T02:13:38;2.17;;;1.85;;
20855;SDS011;63058;49.424;8.420;2023-05-07T02:16:04;3.00;;;1.60;;
20855;SDS011;63058;49.424;8.420;2023-05-07T02:18:30;2.65;;;1.73;;
20855;SDS011;63058;49.424;8.420;2023-05-07T02:20:56;2.47;;;2.25;;
20855;SDS011;63058;49.424;8.420;2023-05-07T02:23:22;2.67;;;1.85;;
20855;SDS011;63058;49.424;8.420;2023-05-07T02:25:48;2.40;;;1.65;;
20855;SDS011;63058;49.424;8.420;2023-05-07T02:28:13;2.30;;;2.08;;
20855;SDS011;63058;49.424;8.420;2023-05-07T02:30:40;3.33;;;2.10;;
20855;SDS011;63058;49.424;8.420;2023-05-07T02:33:06;5.55;;;2.22;;
20855;SDS011;63058;49.424;8.420;2023-05-07T02:35:33;2.63;;;1.77;;
20855;SDS011;63058;49.424;8.420;2023-05-07T02:37:58;2.08;;;1.70;;
20855;SDS011;63058;49.424;8.420;2023-05-07T02:40:24;4.93;;;1.90;;
20855;SDS011;63058;49.424;8.420;2023-05-07T02:42:50;3.03;;;1.45;;
20855;SDS011;63058;49.424;8.420;2023-05-07T02:45:16;2.25;;;1.80;;
20855;SDS011;63058;49.424;8.420;2023-05-07T02:47:41;1.88;;;1.67;;
20855;SDS011;63058;49.424;8.420;2023-05-07T02:50:07;2.35;;;2.00;;
20855;SDS011;63058;49.424;8.420;2023-05-07T02:52:33;3.90;;;1.95;;
20855;SDS011;63058;49.424;8.420;2023-05-07T02:54:58;2.63;;;1.92;;
20855;SDS011;63058;49.424;8.420;2023-05-07T02:57:24;2.67;;;2.08;;
20855;SDS011;63058;49.424;8.420;2023-05-07T02:59:50;3.47;;;2.05;;
20855;SDS011;63058;49.424;8.420;2023-05-07T03:02:16;2.75;;;2.00;;
20855;SDS011;63058;49.424;8.420;2023-05-07T03:04:42;4.15;;;1.80;;
20855;SDS011;63058;49.424;8.420;2023-05-07T03:07:07;3.10;;;1.70;;
20855;SDS011;63058;49.424;8.420;2023-05-07T03:09:33;2.45;;;1.95;;
20855;SDS011;63058;49.424;8.420;2023-05-07T03:11:59;2.10;;;1.90;;
20855;SDS011;63058;49.424;8.420;2023-05-07T03:14:25;3.25;;;1.70;;
20855;SDS011;63058;49.424;8.420;2023-05-07T03:16:50;3.53;;;2.10;;
20855;SDS011;63058;49.424;8.420;2023-05-07T03:19:16;2.95;;;2.08;;
20855;SDS011;63058;49.424;8.420;2023-05-07T03:21:42;2.58;;;1.88;;
20855;SDS011;63058;49.424;8.420;2023-05-07T03:24:07;2.05;;;1.38;;
20855;SDS011;63058;49.424;8.420;2023-05-07T03:26:33;4.22;;;1.77;;
20855;SDS011;63058;49.424;8.420;2023-05-07T03:28:59;2.55;;;1.60;;
20855;SDS011;63058;49.424;8.420;2023-05-07T03:31:25;2.45;;;1.70;;
20855;SDS011;63058;49.424;8.420;2023-05-07T03:33:54;2.75;;;1.83;;
20855;SDS011;63058;49.424;8.420;2023-05-07T03:36:21;3.05;;;1.80;;
20855;SDS011;63058;49.424;8.420;2023-05-07T03:38:48;2.15;;;1.50;;
20855;SDS011;63058;49.424;8.420;2023-05-07T03:41:14;2.85;;;1.85;;
20855;SDS011;63058;49.424;8.420;2023-05-07T03:43:40;2.47;;;1.60;;
20855;SDS011;63058;49.424;8.420;2023-05-07T03:46:06;2.08;;;1.60;;
20855;SDS011;63058;49.424;8.420;2023-05-07T03:48:32;2.45;;;1.52;;
20855;SDS011;63058;49.424;8.420;2023-05-07T03:50:58;1.83;;;1.52;;
20855;SDS011;63058;49.424;8.420;2023-05-07T03:53:24;2.85;;;1.58;;
20855;SDS011;63058;49.424;8.420;2023-05-07T03:55:50;2.00;;;1.30;;
20855;SDS011;63058;49.424;8.420;2023-05-07T03:58:16;2.38;;;1.60;;
20855;SDS011;63058;49.424;8.420;2023-05-07T04:00:41;1.92;;;1.48;;
20855;SDS011;63058;49.424;8.420;2023-05-07T04:03:07;2.88;;;1.33;;
20855;SDS011;63058;49.424;8.420;2023-05-07T04:05:33;1.73;;;1.48;;
20855;SDS011;63058;49.424;8.420;2023-05-07T04:07:59;2.10;;;1.50;;
20855;SDS011;63058;49.424;8.420;2023-05-07T04:10:25;3.33;;;1.50;;
20855;SDS011;63058;49.424;8.420;2023-05-07T04:12:50;2.10;;;1.42;;
20855;SDS011;63058;49.424;8.420;2023-05-07T04:15:16;2.03;;;1.65;;
20855;SDS011;63058;49.424;8.420;2023-05-07T04:17:42;2.28;;;1.83;;
20855;SDS011;63058;49.424;8.420;2023-05-07T04:20:13;4.53;;;1.55;;
20855;SDS011;63058;49.424;8.420;2023-05-07T04:22:40;1.98;;;1.33;;
20855;SDS011;63058;49.424;8.420;2023-05-07T04:25:06;2.78;;;1.90;;
20855;SDS011;63058;49.424;8.420;2023-05-07T04:27:34;2.00;;;1.50;;
20855;SDS011;63058;49.424;8.420;2023-05-07T04:30:00;1.90;;;1.40;;
20855;SDS011;63058;49.424;8.420;2023-05-07T04:32:26;2.78;;;1.60;;
20855;SDS011;63058;49.424;8.420;2023-05-07T04:34:51;2.08;;;1.48;;
20855;SDS011;63058;49.424;8.420;2023-05-07T04:37:17;2.00;;;1.52;;
20855;SDS011;63058;49.424;8.420;2023-05-07T04:39:43;3.78;;;1.45;;
20855;SDS011;63058;49.424;8.420;2023-05-07T04:42:09;5.97;;;1.50;;
20855;SDS011;63058;49.424;8.420;2023-05-07T04:44:39;2.50;;;1.70;;
20855;SDS011;63058;49.424;8.420;2023-05-07T04:47:05;2.88;;;1.63;;
20855;SDS011;63058;49.424;8.420;2023-05-07T04:49:31;3.80;;;1.52;;
20855;SDS011;63058;49.424;8.420;2023-05-07T04:51:57;2.45;;;1.63;;
20855;SDS011;63058;49.424;8.420;2023-05-07T04:54:22;2.13;;;1.70;;
20855;SDS011;63058;49.424;8.420;2023-05-07T04:56:48;2.47;;;1.63;;
20855;SDS011;63058;49.424;8.420;2023-05-07T04:59:14;2.05;;;1.35;;
20855;SDS011;63058;49.424;8.420;2023-05-07T05:01:39;2.78;;;1.60;;
20855;SDS011;63058;49.424;8.420;2023-05-07T05:04:05;2.85;;;1.38;;
20855;SDS011;63058;49.424;8.420;2023-05-07T05:06:31;2.08;;;1.27;;
20855;SDS011;63058;49.424;8.420;2023-05-07T05:08:57;2.60;;;1.50;;
20855;SDS011;63058;49.424;8.420;2023-05-07T05:11:22;6.53;;;1.67;;
20855;SDS011;63058;49.424;8.420;2023-05-07T05:13:48;2.10;;;1.52;;
20855;SDS011;63058;49.424;8.420;2023-05-07T05:16:14;2.65;;;1.90;;
20855;SDS011;63058;49.424;8.420;2023-05-07T05:18:40;2.67;;;1.77;;
20855;SDS011;63058;49.424;8.420;2023-05-07T05:21:06;2.83;;;1.90;;
20855;SDS011;63058;49.424;8.420;2023-05-07T05:23:32;3.80;;;1.92;;
20855;SDS011;63058;49.424;8.420;2023-05-07T05:25:57;2.00;;;1.55;;
20855;SDS011;63058;49.424;8.420;2023-05-07T05:28:23;1.63;;;1.48;;
20855;SDS011;63058;49.424;8.420;2023-05-07T05:30:49;3.17;;;1.75;;
20855;SDS011;63058;49.424;8.420;2023-05-07T05:33:15;2.42;;;2.17;;
20855;SDS011;63058;49.424;8.420;2023-05-07T05:35:41;2.05;;;1.65;;
20855;SDS011;63058;49.424;8.420;2023-05-07T05:38:07;2.70;;;1.88;;
20855;SDS011;63058;49.424;8.420;2023-05-07T05:40:33;2.42;;;2.00;;
20855;SDS011;63058;49.424;8.420;2023-05-07T05:42:59;2.90;;;1.60;;
20855;SDS011;63058;49.424;8.420;2023-05-07T05:45:25;2.90;;;1.75;;
20855;SDS011;63058;49.424;8.420;2023-05-07T05:47:51;2.50;;;2.00;;
20855;SDS011;63058;49.424;8.420;2023-05-07T05:50:16;1.92;;;1.65;;
20855;SDS011;63058;49.424;8.420;2023-05-07T05:52:42;4.18;;;2.13;;
20855;SDS011;63058;49.424;8.420;2023-05-07T05:55:08;2.83;;;1.77;;
20855;SDS011;63058;49.424;8.420;2023-05-07T05:57:34;2.38;;;1.70;;
20855;SDS011;63058;49.424;8.420;2023-05-07T06:00:00;3.75;;;2.20;;
20855;SDS011;63058;49.424;8.420;2023-05-07T06:02:27;2.72;;;2.10;;
20855;SDS011;63058;49.424;8.420;2023-05-07T06:04:53;3.13;;;1.98;;
20855;SDS011;63058;49.424;8.420;2023-05-07T06:07:19;4.05;;;1.95;;
20855;SDS011;63058;49.424;8.420;2023-05-07T06:09:45;2.90;;;2.05;;
20855;SDS011;63058;49.424;8.420;2023-05-07T06:12:11;3.05;;;2.05;;
20855;SDS011;63058;49.424;8.420;2023-05-07T06:14:38;2.47;;;2.05;;
20855;SDS011;63058;49.424;8.420;2023-05-07T06:17:05;2.80;;;2.30;;
20855;SDS011;63058;49.424;8.420;2023-05-07T06:19:31;2.40;;;2.10;;
20855;SDS011;63058;49.424;8.420;2023-05-07T06:21:57;4.65;;;2.20;;
20855;SDS011;63058;49.424;8.420;2023-05-07T06:24:23;2.55;;;2.10;;
20855;SDS011;63058;49.424;8.420;2023-05-07T06:26:49;2.45;;;1.95;;
20855;SDS011;63058;49.424;8.420;2023-05-07T06:29:15;2.10;;;1.90;;
20855;SDS011;63058;49.424;8.420;2023-05-07T06:31:40;3.20;;;2.13;;
20855;SDS011;63058;49.424;8.420;2023-05-07T06:34:06;5.03;;;2.17;;
20855;SDS011;63058;49.424;8.420;2023-05-07T06:36:32;3.05;;;1.90;;
20855;SDS011;63058;49.424;8.420;2023-05-07T06:38:58;2.63;;;1.92;;
20855;SDS011;63058;49.424;8.420;2023-05-07T06:41:24;2.00;;;1.80;;
20855;SDS011;63058;49.424;8.420;2023-05-07T06:43:50;3.65;;;1.80;;
20855;SDS011;63058;49.424;8.420;2023-05-07T06:46:16;3.17;;;2.00;;
20855;SDS011;63058;49.424;8.420;2023-05-07T06:48:42;3.72;;;2.10;;
20855;SDS011;63058;49.424;8.420;2023-05-07T06:51:08;2.10;;;1.73;;
20855;SDS011;63058;49.424;8.420;2023-05-07T06:53:34;5.47;;;2.30;;
20855;SDS011;63058;49.424;8.420;2023-05-07T06:56:00;2.15;;;1.90;;
20855;SDS011;63058;49.424;8.420;2023-05-07T06:58:26;2.40;;;1.83;;
20855;SDS011;63058;49.424;8.420;2023-05-07T07:00:52;2.70;;;1.67;;
20855;SDS011;63058;49.424;8.420;2023-05-07T07:03:17;3.25;;;2.30;;
20855;SDS011;63058;49.424;8.420;2023-05-07T07:05:43;3.08;;;2.40;;
20855;SDS011;63058;49.424;8.420;2023-05-07T07:08:09;4.38;;;2.40;;
20855;SDS011;63058;49.424;8.420;2023-05-07T07:10:35;4.97;;;2.17;;
20855;SDS011;63058;49.424;8.420;2023-05-07T07:13:00;2.50;;;2.00;;
20855;SDS011;63058;49.424;8.420;2023-05-07T07:15:26;3.30;;;2.45;;
20855;SDS011;63058;49.424;8.420;2023-05-07T07:17:53;2.13;;;1.77;;
20855;SDS011;63058;49.424;8.420;2023-05-07T07:20:19;3.13;;;2.25;;
20855;SDS011;63058;49.424;8.420;2023-05-07T07:22:44;2.78;;;2.00;;
20855;SDS011;63058;49.424;8.420;2023-05-07T07:25:12;3.80;;;2.15;;
20855;SDS011;63058;49.424;8.420;2023-05-07T07:27:38;3.03;;;1.90;;
20855;SDS011;63058;49.424;8.420;2023-05-07T07:30:05;2.72;;;2.08;;
20855;SDS011;63058;49.424;8.420;2023-05-07T07:32:31;4.05;;;2.35;;
20855;SDS011;63058;49.424;8.420;2023-05-07T07:34:58;3.90;;;2.28;;
20855;SDS011;63058;49.424;8.420;2023-05-07T07:37:24;3.28;;;2.22;;
20855;SDS011;63058;49.424;8.420;2023-05-07T07:39:50;2.55;;;1.88;;
20855;SDS011;63058;49.424;8.420;2023-05-07T07:42:16;3.13;;;2.42;;
20855;SDS011;63058;49.424;8.420;2023-05-07T07:44:41;4.63;;;2.42;;
20855;SDS011;63058;49.424;8.420;2023-05-07T07:47:07;2.95;;;2.33;;
20855;SDS011;63058;49.424;8.420;2023-05-07T07:49:33;3.72;;;3.08;;
20855;SDS011;63058;49.424;8.420;2023-05-07T07:51:58;4.38;;;2.95;;
20855;SDS011;63058;49.424;8.420;2023-05-07T07:54:25;5.70;;;2.40;;
20855;SDS011;63058;49.424;8.420;2023-05-07T07:59:18;4.60;;;2.22;;
20855;SDS011;63058;49.424;8.420;2023-05-07T08:01:45;3.53;;;2.80;;
20855;SDS011;63058;49.424;8.420;2023-05-07T08:04:10;4.53;;;1.92;;
20855;SDS011;63058;49.424;8.420;2023-05-07T08:06:36;15.43;;;2.33;;
20855;SDS011;63058;49.424;8.420;2023-05-07T08:09:02;4.35;;;1.85;;
20855;SDS011;63058;49.424;8.420;2023-05-07T08:11:28;2.70;;;1.90;;
20855;SDS011;63058;49.424;8.420;2023-05-07T08:13:54;14.00;;;2.53;;
20855;SDS011;63058;49.424;8.420;2023-05-07T08:16:20;9.55;;;2.08;;
20855;SDS011;63058;49.424;8.420;2023-05-07T08:18:46;6.20;;;2.15;;
20855;SDS011;63058;49.424;8.420;2023-05-07T08:21:11;3.47;;;2.08;;
20855;SDS011;63058;49.424;8.420;2023-05-07T08:23:37;6.50;;;2.00;;
20855;SDS011;63058;49.424;8.420;2023-05-07T08:26:02;3.70;;;2.05;;
20855;SDS011;63058;49.424;8.420;2023-05-07T08:28:28;2.95;;;2.08;;
20855;SDS011;63058;49.424;8.420;2023-05-07T08:30:54;5.75;;;2.40;;
20855;SDS011;63058;49.424;8.420;2023-05-07T08:33:21;4.05;;;2.00;;
20855;SDS011;63058;49.424;8.420;2023-05-07T08:35:47;5.05;;;2.08;;
20855;SDS011;63058;49.424;8.420;2023-05-07T08:38:12;4.90;;;2.42;;
20855;SDS011;63058;49.424;8.420;2023-05-07T08:40:38;2.00;;;1.80;;
20855;SDS011;63058;49.424;8.420;2023-05-07T08:43:06;6.70;;;2.10;;
20855;SDS011;63058;49.424;8.420;2023-05-07T08:45:36;5.70;;;2.25;;
20855;SDS011;63058;49.424;8.420;2023-05-07T08:48:10;2.47;;;1.83;;
20855;SDS011;63058;49.424;8.420;2023-05-07T08:50:40;3.15;;;2.17;;
20855;SDS011;63058;49.424;8.420;2023-05-07T08:53:06;5.30;;;1.92;;
20855;SDS011;63058;49.424;8.420;2023-05-07T08:55:31;59.63;;;6.47;;
20855;SDS011;63058;49.424;8.420;2023-05-07T08:57:58;29.25;;;4.10;;
20855;SDS011;63058;49.424;8.420;2023-05-07T09:00:24;3.88;;;2.20;;
20855;SDS011;63058;49.424;8.420;2023-05-07T09:02:50;11.00;;;2.85;;
20855;SDS011;63058;49.424;8.420;2023-05-07T09:05:17;5.22;;;2.88;;
20855;SDS011;63058;49.424;8.420;2023-05-07T09:07:42;4.65;;;3.00;;
20855;SDS011;63058;49.424;8.420;2023-05-07T09:10:08;9.52;;;2.97;;
20855;SDS011;63058;49.424;8.420;2023-05-07T09:12:34;5.93;;;2.53;;
20855;SDS011;63058;49.424;8.420;2023-05-07T09:15:01;4.07;;;2.70;;
20855;SDS011;63058;49.424;8.420;2023-05-07T09:17:27;17.88;;;3.63;;
20855;SDS011;63058;49.424;8.420;2023-05-07T09:19:53;8.60;;;2.88;;
20855;SDS011;63058;49.424;8.420;2023-05-07T09:22:19;4.45;;;2.63;;
20855;SDS011;63058;49.424;8.420;2023-05-07T09:24:48;2.53;;;1.85;;
20855;SDS011;63058;49.424;8.420;2023-05-07T09:27:17;2.92;;;1.95;;
20855;SDS011;63058;49.424;8.420;2023-05-07T09:29:45;3.75;;;2.00;;
20855;SDS011;63058;49.424;8.420;2023-05-07T09:32:11;3.30;;;2.42;;
20855;SDS011;63058;49.424;8.420;2023-05-07T09:34:37;5.18;;;2.20;;
20855;SDS011;63058;49.424;8.420;2023-05-07T09:37:02;3.40;;;2.42;;
20855;SDS011;63058;49.424;8.420;2023-05-07T09:39:41;5.07;;;2.10;;
20855;SDS011;63058;49.424;8.420;2023-05-07T09:42:09;14.77;;;3.55;;
20855;SDS011;63058;49.424;8.420;2023-05-07T09:44:36;3.80;;;2.78;;
20855;SDS011;63058;49.424;8.420;2023-05-07T09:47:04;3.67;;;2.42;;
20855;SDS011;63058;49.424;8.420;2023-05-07T09:49:30;2.97;;;2.15;;
20855;SDS011;63058;49.424;8.420;2023-05-07T09:52:00;5.80;;;1.98;;
20855;SDS011;63058;49.424;8.420;2023-05-07T09:54:26;16.63;;;3.65;;
20855;SDS011;63058;49.424;8.420;2023-05-07T09:56:55;3.55;;;2.10;;
20855;SDS011;63058;49.424;8.420;2023-05-07T09:59:22;9.15;;;2.80;;
20855;SDS011;63058;49.424;8.420;2023-05-07T10:01:48;6.53;;;2.80;;
20855;SDS011;63058;49.424;8.420;2023-05-07T10:04:15;13.73;;;3.33;;
20855;SDS011;63058;49.424;8.420;2023-05-07T10:06:42;9.95;;;3.28;;
20855;SDS011;63058;49.424;8.420;2023-05-07T10:09:09;6.15;;;2.92;;
20855;SDS011;63058;49.424;8.420;2023-05-07T10:11:39;7.22;;;2.83;;
20855;SDS011;63058;49.424;8.420;2023-05-07T10:14:05;4.85;;;3.00;;
20855;SDS011;63058;49.424;8.420;2023-05-07T10:16:31;5.97;;;2.70;;
20855;SDS011;63058;49.424;8.420;2023-05-07T10:19:02;6.22;;;2.95;;
20855;SDS011;63058;49.424;8.420;2023-05-07T10:21:28;4.85;;;2.80;;
20855;SDS011;63058;49.424;8.420;2023-05-07T10:24:00;5.13;;;2.13;;
20855;SDS011;63058;49.424;8.420;2023-05-07T10:26:42;7.15;;;2.42;;
20855;SDS011;63058;49.424;8.420;2023-05-07T10:32:06;5.45;;;1.67;;
20855;SDS011;63058;49.424;8.420;2023-05-07T10:34:40;2.15;;;1.60;;
20855;SDS011;63058;49.424;8.420;2023-05-07T10:37:09;3.90;;;2.00;;
20855;SDS011;63058;49.424;8.420;2023-05-07T10:39:36;5.60;;;2.10;;
20855;SDS011;63058;49.424;8.420;2023-05-07T10:42:12;3.33;;;2.25;;
20855;SDS011;63058;49.424;8.420;2023-05-07T10:44:38;1.85;;;1.27;;
20855;SDS011;63058;49.424;8.420;2023-05-07T10:52:12;1.58;;;1.13;;
20855;SDS011;63058;49.424;8.420;2023-05-07T10:54:40;2.00;;;1.48;;
20855;SDS011;63058;49.424;8.420;2023-05-07T10:59:58;2.85;;;1.70;;
20855;SDS011;63058;49.424;8.420;2023-05-07T11:02:26;1.65;;;1.30;;
20855;SDS011;63058;49.424;8.420;2023-05-07T11:05:25;2.47;;;1.20;;
20855;SDS011;63058;49.424;8.420;2023-05-07T11:07:58;3.55;;;1.50;;
20855;SDS011;63058;49.424;8.420;2023-05-07T11:13:13;3.00;;;1.30;;
20855;SDS011;63058;49.424;8.420;2023-05-07T11:15:40;2.25;;;1.17;;
20855;SDS011;63058;49.424;8.420;2023-05-07T11:18:16;1.67;;;1.13;;
20855;SDS011;63058;49.424;8.420;2023-05-07T11:26:09;3.13;;;1.30;;
20855;SDS011;63058;49.424;8.420;2023-05-07T11:28:37;1.15;;;1.02;;
20855;SDS011;63058;49.424;8.420;2023-05-07T11:31:04;2.50;;;1.10;;
20855;SDS011;63058;49.424;8.420;2023-05-07T11:33:29;2.60;;;1.00;;
20855;SDS011;63058;49.424;8.420;2023-05-07T11:35:56;1.60;;;0.98;;
20855;SDS011;63058;49.424;8.420;2023-05-07T11:38:22;1.13;;;0.80;;
20855;SDS011;63058;49.424;8.420;2023-05-07T11:43:19;1.33;;;0.73;;
20855;SDS011;63058;49.424;8.420;2023-05-07T11:45:48;1.67;;;0.90;;
20855;SDS011;63058;49.424;8.420;2023-05-07T11:48:14;0.73;;;0.73;;
20855;SDS011;63058;49.424;8.420;2023-05-07T11:50:54;1.30;;;1.00;;
20855;SDS011;63058;49.424;8.420;2023-05-07T11:53:27;2.65;;;1.00;;
20855;SDS011;63058;49.424;8.420;2023-05-07T11:56:00;2.92;;;1.15;;
20855;SDS011;63058;49.424;8.420;2023-05-07T11:58:30;1.17;;;0.70;;
20855;SDS011;63058;49.424;8.420;2023-05-07T12:00:56;0.80;;;0.73;;
20855;SDS011;63058;49.424;8.420;2023-05-07T12:03:22;1.00;;;0.80;;
20855;SDS011;63058;49.424;8.420;2023-05-07T12:05:47;1.55;;;0.88;;
20855;SDS011;63058;49.424;8.420;2023-05-07T12:08:17;2.53;;;0.80;;
20855;SDS011;63058;49.424;8.420;2023-05-07T12:10:44;0.85;;;0.80;;
20855;SDS011;63058;49.424;8.420;2023-05-07T12:13:17;1.08;;;0.60;;
20855;SDS011;63058;49.424;8.420;2023-05-07T12:15:46;1.70;;;0.73;;
20855;SDS011;63058;49.424;8.420;2023-05-07T12:18:15;1.33;;;0.70;;
20855;SDS011;63058;49.424;8.420;2023-05-07T12:20:41;1.08;;;0.70;;
20855;SDS011;63058;49.424;8.420;2023-05-07T12:23:07;0.65;;;0.55;;
20855;SDS011;63058;49.424;8.420;2023-05-07T12:25:37;1.35;;;0.70;;
20855;SDS011;63058;49.424;8.420;2023-05-07T12:28:04;1.50;;;0.70;;
20855;SDS011;63058;49.424;8.420;2023-05-07T12:30:39;2.05;;;0.60;;
20855;SDS011;63058;49.424;8.420;2023-05-07T12:33:05;0.82;;;0.70;;
20855;SDS011;63058;49.424;8.420;2023-05-07T12:35:32;0.95;;;0.70;;
20855;SDS011;63058;49.424;8.420;2023-05-07T12:38:01;1.35;;;0.82;;
20855;SDS011;63058;49.424;8.420;2023-05-07T12:43:28;0.93;;;0.60;;
20855;SDS011;63058;49.424;8.420;2023-05-07T12:45:55;2.97;;;0.80;;
20855;SDS011;63058;49.424;8.420;2023-05-07T12:48:22;3.53;;;0.63;;
20855;SDS011;63058;49.424;8.420;2023-05-07T12:50:49;1.98;;;1.00;;
20855;SDS011;63058;49.424;8.420;2023-05-07T12:53:16;1.60;;;0.88;;
20855;SDS011;63058;49.424;8.420;2023-05-07T12:55:42;2.95;;;0.68;;
20855;SDS011;63058;49.424;8.420;2023-05-07T12:58:19;1.98;;;0.85;;
20855;SDS011;63058;49.424;8.420;2023-05-07T13:00:49;1.42;;;0.80;;
20855;SDS011;63058;49.424;8.420;2023-05-07T13:05:52;3.15;;;0.73;;
20855;SDS011;63058;49.424;8.420;2023-05-07T13:10:53;0.73;;;0.55;;
20855;SDS011;63058;49.424;8.420;2023-05-07T13:13:19;1.65;;;0.77;;
20855;SDS011;63058;49.424;8.420;2023-05-07T13:15:46;0.98;;;0.82;;
20855;SDS011;63058;49.424;8.420;2023-05-07T13:18:12;1.10;;;1.00;;
20855;SDS011;63058;49.424;8.420;2023-05-07T13:20:38;2.08;;;1.05;;
20855;SDS011;63058;49.424;8.420;2023-05-07T13:23:03;3.22;;;0.80;;
20855;SDS011;63058;49.424;8.420;2023-05-07T13:25:29;4.25;;;1.13;;
20855;SDS011;63058;49.424;8.420;2023-05-07T13:27:58;6.05;;;1.10;;
20855;SDS011;63058;49.424;8.420;2023-05-07T13:30:24;3.15;;;0.90;;
20855;SDS011;63058;49.424;8.420;2023-05-07T13:32:50;12.70;;;0.98;;
20855;SDS011;63058;49.424;8.420;2023-05-07T13:35:17;2.17;;;0.93;;
20855;SDS011;63058;49.424;8.420;2023-05-07T13:37:42;1.67;;;0.80;;
20855;SDS011;63058;49.424;8.420;2023-05-07T13:40:08;2.65;;;0.88;;
20855;SDS011;63058;49.424;8.420;2023-05-07T13:42:34;3.90;;;0.98;;
20855;SDS011;63058;49.424;8.420;2023-05-07T13:45:00;1.88;;;1.02;;
20855;SDS011;63058;49.424;8.420;2023-05-07T13:47:28;3.67;;;1.10;;
20855;SDS011;63058;49.424;8.420;2023-05-07T13:49:53;1.20;;;0.80;;
20855;SDS011;63058;49.424;8.420;2023-05-07T13:52:19;1.20;;;0.82;;
20855;SDS011;63058;49.424;8.420;2023-05-07T13:54:45;1.77;;;0.88;;
20855;SDS011;63058;49.424;8.420;2023-05-07T13:57:10;1.95;;;0.95;;
20855;SDS011;63058;49.424;8.420;2023-05-07T13:59:36;1.83;;;1.13;;
20855;SDS011;63058;49.424;8.420;2023-05-07T14:02:02;2.10;;;0.93;;
20855;SDS011;63058;49.424;8.420;2023-05-07T14:04:27;2.03;;;1.00;;
20855;SDS011;63058;49.424;8.420;2023-05-07T14:06:53;2.95;;;1.50;;
20855;SDS011;63058;49.424;8.420;2023-05-07T14:09:19;3.72;;;1.52;;
20855;SDS011;63058;49.424;8.420;2023-05-07T14:11:44;2.90;;;1.30;;
20855;SDS011;63058;49.424;8.420;2023-05-07T14:14:12;2.47;;;1.00;;
20855;SDS011;63058;49.424;8.420;2023-05-07T14:16:38;2.15;;;1.13;;
20855;SDS011;63058;49.424;8.420;2023-05-07T14:19:03;2.00;;;1.15;;
20855;SDS011;63058;49.424;8.420;2023-05-07T14:21:29;2.90;;;1.20;;
20855;SDS011;63058;49.424;8.420;2023-05-07T14:23:55;2.55;;;1.13;;
20855;SDS011;63058;49.424;8.420;2023-05-07T14:26:21;1.80;;;1.02;;
20855;SDS011;63058;49.424;8.420;2023-05-07T14:28:48;2.53;;;1.25;;
20855;SDS011;63058;49.424;8.420;2023-05-07T14:31:13;3.70;;;1.50;;
20855;SDS011;63058;49.424;8.420;2023-05-07T14:33:39;2.58;;;1.13;;
20855;SDS011;63058;49.424;8.420;2023-05-07T14:36:05;2.08;;;1.48;;
20855;SDS011;63058;49.424;8.420;2023-05-07T14:38:31;2.17;;;1.67;;
20855;SDS011;63058;49.424;8.420;2023-05-07T14:40:58;2.80;;;1.67;;
20855;SDS011;63058;49.424;8.420;2023-05-07T14:43:23;2.63;;;1.45;;
20855;SDS011;63058;49.424;8.420;2023-05-07T14:45:49;3.45;;;1.67;;
20855;SDS011;63058;49.424;8.420;2023-05-07T14:48:15;3.10;;;1.67;;
20855;SDS011;63058;49.424;8.420;2023-05-07T14:50:43;5.15;;;2.03;;
20855;SDS011;63058;49.424;8.420;2023-05-07T14:53:12;3.42;;;1.77;;
20855;SDS011;63058;49.424;8.420;2023-05-07T14:55:38;3.40;;;1.80;;
20855;SDS011;63058;49.424;8.420;2023-05-07T14:58:04;5.00;;;1.80;;
20855;SDS011;63058;49.424;8.420;2023-05-07T15:00:29;6.53;;;1.77;;
20855;SDS011;63058;49.424;8.420;2023-05-07T15:03:01;3.95;;;1.90;;
20855;SDS011;63058;49.424;8.420;2023-05-07T15:05:31;5.65;;;1.63;;
20855;SDS011;63058;49.424;8.420;2023-05-07T15:07:57;6.47;;;1.88;;
20855;SDS011;63058;49.424;8.420;2023-05-07T15:10:23;4.10;;;1.80;;
20855;SDS011;63058;49.424;8.420;2023-05-07T15:12:49;5.22;;;1.92;;
20855;SDS011;63058;49.424;8.420;2023-05-07T15:15:15;3.13;;;1.92;;
20855;SDS011;63058;49.424;8.420;2023-05-07T15:17:40;4.43;;;2.25;;